sensor_id;sensor_type;location;lat;lon;timestamp;pressure;altitude;pressure_sealevel;temperature;humidity
65190;BME280;51777;53.570;9.984;2024-02-26T00:01:41;100079.75;;;5.26;100.00
65190;BME280;51777;53.570;9.984;2024-02-26T00:04:09;100081.78;;;5.23;100.00
65190;BME280;51777;53.570;9.984;2024-02-26T00:06:34;100086.22;;;5.21;100.00
65190;BME280;51777;53.570;9.984;2024-02-26T00:11:29;100091.69;;;5.16;100.00
65190;BME280;51777;53.570;9.984;2024-02-26T00:13:55;100096.16;;;5.14;100.00
65190;BME280;51777;53.570;9.984;2024-02-26T00:16:20;100089.53;;;5.12;100.00
65190;BME280;51777;53.570;9.984;2024-02-26T00:18:46;100088.03;;;5.09;100.00
65190;BME280;51777;53.570;9.984;2024-02-26T00:21:11;100087.09;;;5.10;100.00
65190;BME280;51777;53.570;9.984;2024-02-26T00:23:37;100086.66;;;5.05;100.00
65190;BME280;51777;53.570;9.984;2024-02-26T00:26:02;100085.84;;;5.05;100.00
65190;BME280;51777;53.570;9.984;2024-02-26T00:28:28;100083.66;;;5.00;100.00
65190;BME280;51777;53.570;9.984;2024-02-26T00:30:54;100080.41;;;4.98;100.00
65190;BME280;51777;53.570;9.984;2024-02-26T00:33:21;100078.53;;;5.00;100.00
65190;BME280;51777;53.570;9.984;2024-02-26T00:35:47;100082.84;;;4.99;100.00
65190;BME280;51777;53.570;9.984;2024-02-26T00:38:12;100078.78;;;4.97;100.00
65190;BME280;51777;53.570;9.984;2024-02-26T00:40:37;100081.16;;;4.89;100.00
65190;BME280;51777;53.570;9.984;2024-02-26T00:43:03;100082.59;;;4.82;100.00
65190;BME280;51777;53.570;9.984;2024-02-26T00:45:28;100079.34;;;4.80;100.00
65190;BME280;51777;53.570;9.984;2024-02-26T00:47:54;100081.66;;;4.83;100.00
65190;BME280;51777;53.570;9.984;2024-02-26T00:50:19;100087.59;;;4.83;100.00
65190;BME280;51777;53.570;9.984;2024-02-26T00:52:44;100085.41;;;4.79;100.00
65190;BME280;51777;53.570;9.984;2024-02-26T00:55:10;100085.41;;;4.79;100.00
65190;BME280;51777;53.570;9.984;2024-02-26T00:57:35;100087.28;;;4.77;100.00
65190;BME280;51777;53.570;9.984;2024-02-26T01:00:01;100086.72;;;4.73;100.00
65190;BME280;51777;53.570;9.984;2024-02-26T01:02:26;100087.75;;;4.70;100.00
65190;BME280;51777;53.570;9.984;2024-02-26T01:04:52;100089.91;;;4.65;100.00
65190;BME280;51777;53.570;9.984;2024-02-26T01:07:17;100078.97;;;4.63;100.00
65190;BME280;51777;53.570;9.984;2024-02-26T01:09:42;100083.28;;;4.63;100.00
65190;BME280;51777;53.570;9.984;2024-02-26T01:12:08;100080.03;;;4.61;100.00
65190;BME280;51777;53.570;9.984;2024-02-26T01:14:34;100078.50;;;4.58;100.00
65190;BME280;51777;53.570;9.984;2024-02-26T01:17:00;100084.69;;;4.56;100.00
65190;BME280;51777;53.570;9.984;2024-02-26T01:19:25;100087.38;;;4.54;100.00
65190;BME280;51777;53.570;9.984;2024-02-26T01:21:50;100092.28;;;4.46;100.00
65190;BME280;51777;53.570;9.984;2024-02-26T01:24:16;100095.69;;;4.47;100.00
65190;BME280;51777;53.570;9.984;2024-02-26T01:26:41;100098.34;;;4.45;100.00
65190;BME280;51777;53.570;9.984;2024-02-26T01:29:07;100097.53;;;4.45;100.00
65190;BME280;51777;53.570;9.984;2024-02-26T01:31:32;100094.28;;;4.42;100.00
65190;BME280;51777;53.570;9.984;2024-02-26T01:33:58;100093.72;;;4.39;100.00
65190;BME280;51777;53.570;9.984;2024-02-26T01:36:23;100096.88;;;4.31;100.00
65190;BME280;51777;53.570;9.984;2024-02-26T01:38:48;100093.50;;;4.31;100.00
65190;BME280;51777;53.570;9.984;2024-02-26T01:41:14;100098.19;;;4.26;100.00
65190;BME280;51777;53.570;9.984;2024-02-26T01:43:40;100095.06;;;4.22;100.00
65190;BME280;51777;53.570;9.984;2024-02-26T01:46:06;100094.25;;;4.22;100.00
65190;BME280;51777;53.570;9.984;2024-02-26T01:48:35;100097.38;;;4.25;100.00
65190;BME280;51777;53.570;9.984;2024-02-26T01:51:01;100097.38;;;4.25;100.00
65190;BME280;51777;53.570;9.984;2024-02-26T01:53:27;100094.94;;;4.24;100.00
65190;BME280;51777;53.570;9.984;2024-02-26T01:55:52;100097.72;;;4.21;100.00
65190;BME280;51777;53.570;9.984;2024-02-26T01:58:18;100108.06;;;4.19;100.00
65190;BME280;51777;53.570;9.984;2024-02-26T02:00:43;100107.50;;;4.16;100.00
65190;BME280;51777;53.570;9.984;2024-02-26T02:03:09;100105.44;;;4.09;100.00
65190;BME280;51777;53.570;9.984;2024-02-26T02:05:35;100111.59;;;4.07;100.00
65190;BME280;51777;53.570;9.984;2024-02-26T02:08:07;100108.59;;;4.02;100.00
65190;BME280;51777;53.570;9.984;2024-02-26T02:10:32;100108.97;;;3.97;100.00
65190;BME280;51777;53.570;9.984;2024-02-26T02:12:58;100107.56;;;3.93;100.00
65190;BME280;51777;53.570;9.984;2024-02-26T02:15:23;100096.88;;;3.88;100.00
65190;BME280;51777;53.570;9.984;2024-02-26T02:17:49;100097.13;;;3.85;100.00
65190;BME280;51777;53.570;9.984;2024-02-26T02:20:18;100094.09;;;3.80;100.00
65190;BME280;51777;53.570;9.984;2024-02-26T02:22:46;100092.00;;;3.74;100.00
65190;BME280;51777;53.570;9.984;2024-02-26T02:25:12;100100.72;;;3.71;100.00
65190;BME280;51777;53.570;9.984;2024-02-26T02:27:38;100097.34;;;3.71;100.00
65190;BME280;51777;53.570;9.984;2024-02-26T02:30:04;100101.88;;;3.67;100.00
65190;BME280;51777;53.570;9.984;2024-02-26T02:32:30;100105.84;;;3.60;100.00
65190;BME280;51777;53.570;9.984;2024-02-26T02:34:56;100107.47;;;3.61;100.00
65190;BME280;51777;53.570;9.984;2024-02-26T02:37:21;100108.16;;;3.63;100.00
65190;BME280;51777;53.570;9.984;2024-02-26T02:39:47;100107.00;;;3.67;100.00
65190;BME280;51777;53.570;9.984;2024-02-26T02:42:12;100104.06;;;3.72;100.00
65190;BME280;51777;53.570;9.984;2024-02-26T02:44:38;100111.06;;;3.70;100.00
65190;BME280;51777;53.570;9.984;2024-02-26T02:47:03;100109.66;;;3.66;100.00
65190;BME280;51777;53.570;9.984;2024-02-26T02:49:29;100115.84;;;3.63;100.00
65190;BME280;51777;53.570;9.984;2024-02-26T02:51:54;100111.66;;;3.62;100.00
65190;BME280;51777;53.570;9.984;2024-02-26T02:54:20;100120.25;;;3.61;100.00
65190;BME280;51777;53.570;9.984;2024-02-26T02:56:45;100111.16;;;3.57;100.00
65190;BME280;51777;53.570;9.984;2024-02-26T02:59:11;100112.34;;;3.53;100.00
65190;BME280;51777;53.570;9.984;2024-02-26T03:01:37;100121.75;;;3.52;100.00
65190;BME280;51777;53.570;9.984;2024-02-26T03:04:02;100127.22;;;3.48;100.00
65190;BME280;51777;53.570;9.984;2024-02-26T03:06:28;100119.06;;;3.43;100.00
65190;BME280;51777;53.570;9.984;2024-02-26T03:08:54;100118.81;;;3.46;100.00
65190;BME280;51777;53.570;9.984;2024-02-26T03:11:20;100122.09;;;3.48;100.00
65190;BME280;51777;53.570;9.984;2024-02-26T03:13:45;100127.22;;;3.48;100.00
65190;BME280;51777;53.570;9.984;2024-02-26T03:16:11;100130.09;;;3.43;100.00
65190;BME280;51777;53.570;9.984;2024-02-26T03:18:39;100130.09;;;3.43;100.00
65190;BME280;51777;53.570;9.984;2024-02-26T03:21:05;100125.69;;;3.45;100.00
65190;BME280;51777;53.570;9.984;2024-02-26T03:23:30;100127.22;;;3.48;100.00
65190;BME280;51777;53.570;9.984;2024-02-26T03:25:58;100123.72;;;3.49;100.00
65190;BME280;51777;53.570;9.984;2024-02-26T03:28:23;100127.31;;;3.46;100.00
65190;BME280;51777;53.570;9.984;2024-02-26T03:30:48;100122.91;;;3.48;100.00
65190;BME280;51777;53.570;9.984;2024-02-26T03:33:14;100121.31;;;3.47;100.00
65190;BME280;51777;53.570;9.984;2024-02-26T03:35:39;100130.59;;;3.48;100.00
65190;BME280;51777;53.570;9.984;2024-02-26T03:38:05;100135.69;;;3.48;100.00
65190;BME280;51777;53.570;9.984;2024-02-26T03:40:30;100132.41;;;3.46;100.00
65190;BME280;51777;53.570;9.984;2024-02-26T03:42:55;100133.34;;;3.45;100.00
65190;BME280;51777;53.570;9.984;2024-02-26T03:45:22;100133.59;;;3.42;100.00
65190;BME280;51777;53.570;9.984;2024-02-26T03:47:49;100130.56;;;3.37;100.00
65190;BME280;51777;53.570;9.984;2024-02-26T03:50:14;100137.53;;;3.35;100.00
65190;BME280;51777;53.570;9.984;2024-02-26T03:52:39;100148.78;;;3.33;100.00
65190;BME280;51777;53.570;9.984;2024-02-26T03:55:05;100159.81;;;3.33;100.00
65190;BME280;51777;53.570;9.984;2024-02-26T03:57:31;100161.78;;;3.30;100.00
65190;BME280;51777;53.570;9.984;2024-02-26T03:59:56;100168.53;;;3.31;100.00
65190;BME280;51777;53.570;9.984;2024-02-26T04:02:22;100159.81;;;3.33;100.00
65190;BME280;51777;53.570;9.984;2024-02-26T04:04:48;100163.91;;;3.36;100.00
65190;BME280;51777;53.570;9.984;2024-02-26T04:07:14;100171.19;;;3.29;100.00
65190;BME280;51777;53.570;9.984;2024-02-26T04:09:39;100183.97;;;3.29;100.00
65190;BME280;51777;53.570;9.984;2024-02-26T04:12:05;100176.06;;;3.32;100.00
65190;BME280;51777;53.570;9.984;2024-02-26T04:14:31;100180.25;;;3.33;100.00
65190;BME280;51777;53.570;9.984;2024-02-26T04:16:56;100182.81;;;3.33;100.00
65190;BME280;51777;53.570;9.984;2024-02-26T04:19:22;100187.91;;;3.33;100.00
65190;BME280;51777;53.570;9.984;2024-02-26T04:21:47;100190.47;;;3.33;100.00
65190;BME280;51777;53.570;9.984;2024-02-26T04:24:13;100201.41;;;3.35;100.00
65190;BME280;51777;53.570;9.984;2024-02-26T04:26:38;100203.13;;;3.35;100.00
65190;BME280;51777;53.570;9.984;2024-02-26T04:29:04;100205.59;;;3.36;100.00
65190;BME280;51777;53.570;9.984;2024-02-26T04:31:29;100210.59;;;3.38;100.00
65190;BME280;51777;53.570;9.984;2024-02-26T04:33:56;100205.59;;;3.36;100.00
65190;BME280;51777;53.570;9.984;2024-02-26T04:36:22;100213.34;;;3.35;100.00
65190;BME280;51777;53.570;9.984;2024-02-26T04:38:47;100213.03;;;3.39;100.00
65190;BME280;51777;53.570;9.984;2024-02-26T04:41:18;100218.25;;;3.38;100.00
65190;BME280;51777;53.570;9.984;2024-02-26T04:43:43;100234.41;;;3.38;100.00
65190;BME280;51777;53.570;9.984;2024-02-26T04:46:09;100234.28;;;3.40;100.00
65190;BME280;51777;53.570;9.984;2024-02-26T04:48:38;100226.41;;;3.43;100.00
65190;BME280;51777;53.570;9.984;2024-02-26T04:51:04;100239.16;;;3.43;100.00
65190;BME280;51777;53.570;9.984;2024-02-26T04:53:29;100240.09;;;3.42;100.00
65190;BME280;51777;53.570;9.984;2024-02-26T04:55:55;100236.84;;;3.40;100.00
65190;BME280;51777;53.570;9.984;2024-02-26T04:58:20;100240.22;;;3.40;100.00
65190;BME280;51777;53.570;9.984;2024-02-26T05:00:45;100247.88;;;3.40;100.00
65190;BME280;51777;53.570;9.984;2024-02-26T05:03:16;100248.13;;;3.37;100.00
65190;BME280;51777;53.570;9.984;2024-02-26T05:05:45;100247.28;;;3.37;100.00
65190;BME280;51777;53.570;9.984;2024-02-26T05:08:11;100246.25;;;3.39;100.00
65190;BME280;51777;53.570;9.984;2024-02-26T05:10:39;100253.34;;;3.36;100.00
65190;BME280;51777;53.570;9.984;2024-02-26T05:13:06;100256.47;;;3.39;100.00
65190;BME280;51777;53.570;9.984;2024-02-26T05:15:32;100252.75;;;3.43;100.00
65190;BME280;51777;53.570;9.984;2024-02-26T05:17:57;100255.31;;;3.43;100.00
65190;BME280;51777;53.570;9.984;2024-02-26T05:20:23;100264.59;;;3.44;100.00
65190;BME280;51777;53.570;9.984;2024-02-26T05:22:48;100251.13;;;3.42;100.00
65190;BME280;51777;53.570;9.984;2024-02-26T05:25:15;100249.75;;;3.38;100.00
65190;BME280;51777;53.570;9.984;2024-02-26T05:27:41;100263.66;;;3.34;100.00
65190;BME280;51777;53.570;9.984;2024-02-26T05:30:07;100261.44;;;3.30;100.00
65190;BME280;51777;53.570;9.984;2024-02-26T05:32:33;100271.06;;;3.26;100.00
65190;BME280;51777;53.570;9.984;2024-02-26T05:34:58;100266.06;;;3.24;100.00
65190;BME280;51777;53.570;9.984;2024-02-26T05:37:23;100272.91;;;3.24;100.00
65190;BME280;51777;53.570;9.984;2024-02-26T05:39:49;100273.94;;;3.21;100.00
65190;BME280;51777;53.570;9.984;2024-02-26T05:42:17;100278.22;;;3.21;100.00
65190;BME280;51777;53.570;9.984;2024-02-26T05:44:46;100274.97;;;3.19;100.00
65190;BME280;51777;53.570;9.984;2024-02-26T05:47:11;100286.13;;;3.18;100.00
65190;BME280;51777;53.570;9.984;2024-02-26T05:49:37;100290.75;;;3.13;100.00
65190;BME280;51777;53.570;9.984;2024-02-26T05:52:02;100287.50;;;3.11;100.00
65190;BME280;51777;53.570;9.984;2024-02-26T05:54:27;100292.38;;;3.14;100.00
65190;BME280;51777;53.570;9.984;2024-02-26T05:56:53;100290.84;;;3.11;100.00
65190;BME280;51777;53.570;9.984;2024-02-26T05:59:18;100291.16;;;3.07;100.00
65190;BME280;51777;53.570;9.984;2024-02-26T06:01:44;100299.63;;;3.07;100.00
65190;BME280;51777;53.570;9.984;2024-02-26T06:04:09;100304.63;;;3.09;100.00
65190;BME280;51777;53.570;9.984;2024-02-26T06:06:34;100310.25;;;3.14;100.00
65190;BME280;51777;53.570;9.984;2024-02-26T06:09:00;100305.63;;;3.19;100.00
65190;BME280;51777;53.570;9.984;2024-02-26T06:11:25;100299.28;;;3.24;100.00
65190;BME280;51777;53.570;9.984;2024-02-26T06:13:51;100311.94;;;3.26;100.00
65190;BME280;51777;53.570;9.984;2024-02-26T06:16:16;100319.72;;;3.24;100.00
65190;BME280;51777;53.570;9.984;2024-02-26T06:18:42;100322.28;;;3.24;100.00
65190;BME280;51777;53.570;9.984;2024-02-26T06:21:10;100328.38;;;3.22;100.00
65190;BME280;51777;53.570;9.984;2024-02-26T06:23:37;100326.97;;;3.18;100.00
65190;BME280;51777;53.570;9.984;2024-02-26T06:26:03;100324.53;;;3.16;100.00
65190;BME280;51777;53.570;9.984;2024-02-26T06:28:28;100321.28;;;3.14;100.00
65190;BME280;51777;53.570;9.984;2024-02-26T06:30:58;100327.44;;;3.12;100.00
65190;BME280;51777;53.570;9.984;2024-02-26T06:33:24;100322.31;;;3.12;100.00
65190;BME280;51777;53.570;9.984;2024-02-26T06:36:04;100322.22;;;3.13;100.00
65190;BME280;51777;53.570;9.984;2024-02-26T06:38:30;100325.56;;;3.14;100.00
65190;BME280;51777;53.570;9.984;2024-02-26T06:40:55;100329.97;;;3.12;100.00
65190;BME280;51777;53.570;9.984;2024-02-26T06:43:21;100331.81;;;3.10;100.00
65190;BME280;51777;53.570;9.984;2024-02-26T06:45:49;100333.34;;;3.12;100.00
65190;BME280;51777;53.570;9.984;2024-02-26T06:48:15;100333.47;;;3.11;100.00
65190;BME280;51777;53.570;9.984;2024-02-26T06:50:40;100334.97;;;3.13;100.00
65190;BME280;51777;53.570;9.984;2024-02-26T06:53:06;100337.44;;;3.15;100.00
65190;BME280;51777;53.570;9.984;2024-02-26T06:55:32;100345.91;;;3.15;100.00
65190;BME280;51777;53.570;9.984;2024-02-26T06:57:57;100343.13;;;3.18;100.00
65190;BME280;51777;53.570;9.984;2024-02-26T07:00:23;100349.66;;;3.22;100.00
65190;BME280;51777;53.570;9.984;2024-02-26T07:02:54;100348.41;;;3.28;100.00
65190;BME280;51777;53.570;9.984;2024-02-26T07:05:19;100350.25;;;3.26;100.00
65190;BME280;51777;53.570;9.984;2024-02-26T07:07:45;100358.16;;;3.23;100.00
65190;BME280;51777;53.570;9.984;2024-02-26T07:10:10;100355.25;;;3.28;100.00
65190;BME280;51777;53.570;9.984;2024-02-26T07:12:39;100358.09;;;3.36;100.00
65190;BME280;51777;53.570;9.984;2024-02-26T07:15:04;100359.00;;;3.35;100.00
65190;BME280;51777;53.570;9.984;2024-02-26T07:17:33;100366.47;;;3.38;100.00
65190;BME280;51777;53.570;9.984;2024-02-26T07:19:59;100369.94;;;3.37;100.00
65190;BME280;51777;53.570;9.984;2024-02-26T07:22:25;100371.94;;;3.44;100.00
65190;BME280;51777;53.570;9.984;2024-02-26T07:24:50;100373.03;;;3.53;100.00
65190;BME280;51777;53.570;9.984;2024-02-26T07:27:40;100379.25;;;3.62;100.00
65190;BME280;51777;53.570;9.984;2024-02-26T07:30:47;100377.69;;;3.48;100.00
65190;BME280;51777;53.570;9.984;2024-02-26T07:33:20;100383.53;;;3.61;100.00
65190;BME280;51777;53.570;9.984;2024-02-26T07:35:49;100378.94;;;3.77;100.00
65190;BME280;51777;53.570;9.984;2024-02-26T07:38:15;100378.66;;;3.93;100.00
65190;BME280;51777;53.570;9.984;2024-02-26T07:40:40;100392.66;;;4.11;100.00
65190;BME280;51777;53.570;9.984;2024-02-26T07:43:06;100394.53;;;4.21;100.00
65190;BME280;51777;53.570;9.984;2024-02-26T07:45:31;100405.03;;;4.40;100.00
65190;BME280;51777;53.570;9.984;2024-02-26T07:47:56;100408.66;;;4.37;100.00
65190;BME280;51777;53.570;9.984;2024-02-26T07:50:22;100406.09;;;4.37;100.00
65190;BME280;51777;53.570;9.984;2024-02-26T07:52:47;100413.00;;;4.59;100.00
65190;BME280;51777;53.570;9.984;2024-02-26T07:55:14;100413.56;;;4.74;100.00
65190;BME280;51777;53.570;9.984;2024-02-26T07:57:42;100419.84;;;4.92;100.00
65190;BME280;51777;53.570;9.984;2024-02-26T08:00:09;100429.97;;;5.05;100.00
65190;BME280;51777;53.570;9.984;2024-02-26T08:02:35;100427.88;;;5.21;100.00
65190;BME280;51777;53.570;9.984;2024-02-26T08:05:01;100431.34;;;5.20;100.00
65190;BME280;51777;53.570;9.984;2024-02-26T08:07:26;100432.63;;;5.26;100.00
65190;BME280;51777;53.570;9.984;2024-02-26T08:09:52;100432.06;;;5.34;100.00
65190;BME280;51777;53.570;9.984;2024-02-26T08:12:19;100443.34;;;5.20;100.00
65190;BME280;51777;53.570;9.984;2024-02-26T08:14:45;100441.38;;;5.23;100.00
65190;BME280;51777;53.570;9.984;2024-02-26T08:17:10;100441.72;;;5.08;100.00
65190;BME280;51777;53.570;9.984;2024-02-26T08:19:36;100443.94;;;5.23;100.00
65190;BME280;51777;53.570;9.984;2024-02-26T08:22:04;100444.38;;;5.40;100.00
65190;BME280;51777;53.570;9.984;2024-02-26T08:24:41;100449.28;;;5.31;100.00
65190;BME280;51777;53.570;9.984;2024-02-26T08:27:07;100448.13;;;5.36;100.00
65190;BME280;51777;53.570;9.984;2024-02-26T08:29:32;100447.91;;;5.27;100.00
65190;BME280;51777;53.570;9.984;2024-02-26T08:31:58;100451.84;;;5.43;100.00
65190;BME280;51777;53.570;9.984;2024-02-26T08:34:23;100445.56;;;5.36;100.00
65190;BME280;51777;53.570;9.984;2024-02-26T08:36:48;100456.06;;;5.21;100.00
65190;BME280;51777;53.570;9.984;2024-02-26T08:39:15;100451.41;;;5.26;100.00
65190;BME280;51777;53.570;9.984;2024-02-26T08:41:43;100459.41;;;5.33;100.00
65190;BME280;51777;53.570;9.984;2024-02-26T08:44:09;100464.78;;;5.41;100.00
65190;BME280;51777;53.570;9.984;2024-02-26T08:46:37;100466.38;;;5.53;100.00
65190;BME280;51777;53.570;9.984;2024-02-26T08:49:03;100467.97;;;5.66;100.00
65190;BME280;51777;53.570;9.984;2024-02-26T08:51:29;100468.09;;;5.64;100.00
65190;BME280;51777;53.570;9.984;2024-02-26T08:53:54;100470.31;;;5.69;100.00
65190;BME280;51777;53.570;9.984;2024-02-26T08:56:22;100472.19;;;5.67;100.00
65190;BME280;51777;53.570;9.984;2024-02-26T08:58:49;100475.00;;;5.52;100.00
65190;BME280;51777;53.570;9.984;2024-02-26T09:01:19;100474.41;;;5.71;100.00
65190;BME280;51777;53.570;9.984;2024-02-26T09:03:45;100475.94;;;5.63;100.00
65190;BME280;51777;53.570;9.984;2024-02-26T09:06:10;100472.38;;;5.97;100.00
65190;BME280;51777;53.570;9.984;2024-02-26T09:08:39;100479.47;;;5.94;100.00
65190;BME280;51777;53.570;9.984;2024-02-26T09:11:05;100485.88;;;5.88;100.00
65190;BME280;51777;53.570;9.984;2024-02-26T09:13:31;100481.56;;;5.88;100.00
65190;BME280;51777;53.570;9.984;2024-02-26T09:15:56;100483.09;;;5.80;100.00
65190;BME280;51777;53.570;9.984;2024-02-26T09:18:22;100486.97;;;5.74;100.00
65190;BME280;51777;53.570;9.984;2024-02-26T09:20:47;100495.13;;;5.68;100.00
65190;BME280;51777;53.570;9.984;2024-02-26T09:23:13;100499.91;;;5.84;100.00
65190;BME280;51777;53.570;9.984;2024-02-26T09:25:38;100500.88;;;6.15;100.00
65190;BME280;51777;53.570;9.984;2024-02-26T09:28:16;100500.44;;;6.10;100.00
65190;BME280;51777;53.570;9.984;2024-02-26T09:30:45;100496.16;;;6.20;100.00
65190;BME280;51777;53.570;9.984;2024-02-26T09:33:14;100494.84;;;6.05;100.00
65190;BME280;51777;53.570;9.984;2024-02-26T09:35:40;100505.03;;;5.84;100.00
65190;BME280;51777;53.570;9.984;2024-02-26T09:38:18;100507.72;;;6.26;100.00
65190;BME280;51777;53.570;9.984;2024-02-26T09:40:43;100519.47;;;6.28;100.00
65190;BME280;51777;53.570;9.984;2024-02-26T09:43:10;100508.16;;;6.52;100.00
65190;BME280;51777;53.570;9.984;2024-02-26T09:45:40;100508.78;;;6.65;100.00
65190;BME280;51777;53.570;9.984;2024-02-26T09:48:16;100508.78;;;6.65;100.00
65190;BME280;51777;53.570;9.984;2024-02-26T09:50:43;100517.06;;;6.47;100.00
65190;BME280;51777;53.570;9.984;2024-02-26T09:53:09;100517.88;;;6.48;100.00
65190;BME280;51777;53.570;9.984;2024-02-26T09:55:36;100516.69;;;6.73;100.00
65190;BME280;51777;53.570;9.984;2024-02-26T09:58:01;100523.25;;;6.87;100.00
65190;BME280;51777;53.570;9.984;2024-02-26T10:00:32;100519.13;;;6.95;100.00
65190;BME280;51777;53.570;9.984;2024-02-26T10:03:03;100531.78;;;6.87;100.00
65190;BME280;51777;53.570;9.984;2024-02-26T10:05:35;100526.72;;;6.76;100.00
65190;BME280;51777;53.570;9.984;2024-02-26T10:08:03;100527.72;;;6.64;100.00
65190;BME280;51777;53.570;9.984;2024-02-26T10:10:29;100532.44;;;6.59;100.00
65190;BME280;51777;53.570;9.984;2024-02-26T10:12:56;100538.72;;;6.55;100.00
65190;BME280;51777;53.570;9.984;2024-02-26T10:15:23;100525.91;;;6.75;100.00
65190;BME280;51777;53.570;9.984;2024-02-26T10:17:49;100530.09;;;6.76;100.00
65190;BME280;51777;53.570;9.984;2024-02-26T10:20:16;100535.09;;;6.57;100.00
65190;BME280;51777;53.570;9.984;2024-02-26T10:22:49;100540.00;;;6.60;100.00
65190;BME280;51777;53.570;9.984;2024-02-26T10:25:15;100535.78;;;7.01;100.00
65190;BME280;51777;53.570;9.984;2024-02-26T10:27:41;100538.34;;;7.01;100.00
65190;BME280;51777;53.570;9.984;2024-02-26T10:30:21;100539.78;;;7.15;100.00
65190;BME280;51777;53.570;9.984;2024-02-26T10:32:49;100546.28;;;7.19;100.00
65190;BME280;51777;53.570;9.984;2024-02-26T10:35:16;100550.38;;;7.31;100.00
65190;BME280;51777;53.570;9.984;2024-02-26T10:37:43;100547.78;;;7.21;100.00
65190;BME280;51777;53.570;9.984;2024-02-26T10:40:10;100546.88;;;7.01;100.00
65190;BME280;51777;53.570;9.984;2024-02-26T10:42:36;100554.13;;;7.17;100.00
65190;BME280;51777;53.570;9.984;2024-02-26T10:45:04;100555.38;;;7.23;100.00
65190;BME280;51777;53.570;9.984;2024-02-26T10:47:30;100559.72;;;7.62;100.00
65190;BME280;51777;53.570;9.984;2024-02-26T10:49:58;100566.59;;;8.12;100.00
65190;BME280;51777;53.570;9.984;2024-02-26T10:52:25;100563.47;;;7.99;100.00
65190;BME280;51777;53.570;9.984;2024-02-26T10:54:54;100568.13;;;8.34;100.00
65190;BME280;51777;53.570;9.984;2024-02-26T10:57:22;100563.06;;;9.00;100.00
65190;BME280;51777;53.570;9.984;2024-02-26T10:59:51;100567.03;;;8.85;100.00
65190;BME280;51777;53.570;9.984;2024-02-26T11:02:17;100573.00;;;8.95;100.00
65190;BME280;51777;53.570;9.984;2024-02-26T11:04:45;100576.94;;;8.79;100.00
65190;BME280;51777;53.570;9.984;2024-02-26T11:07:12;100574.09;;;8.73;100.00
65190;BME280;51777;53.570;9.984;2024-02-26T11:09:38;100577.13;;;9.15;100.00
65190;BME280;51777;53.570;9.984;2024-02-26T11:12:10;100575.63;;;9.22;100.00
65190;BME280;51777;53.570;9.984;2024-02-26T11:14:40;100579.03;;;9.50;100.00
65190;BME280;51777;53.570;9.984;2024-02-26T11:17:08;100575.16;;;9.36;100.00
65190;BME280;51777;53.570;9.984;2024-02-26T11:19:35;100579.81;;;9.60;100.00
65190;BME280;51777;53.570;9.984;2024-02-26T11:22:01;100573.16;;;9.67;100.00
65190;BME280;51777;53.570;9.984;2024-02-26T11:24:27;100580.44;;;9.72;100.00
65190;BME280;51777;53.570;9.984;2024-02-26T11:26:56;100579.50;;;9.73;100.00
65190;BME280;51777;53.570;9.984;2024-02-26T11:29:32;100582.16;;;9.54;100.00
65190;BME280;51777;53.570;9.984;2024-02-26T11:32:00;100587.50;;;9.97;100.00
65190;BME280;51777;53.570;9.984;2024-02-26T11:34:26;100579.72;;;9.52;100.00
65190;BME280;51777;53.570;9.984;2024-02-26T11:36:53;100579.00;;;9.87;100.00
65190;BME280;51777;53.570;9.984;2024-02-26T11:39:19;100587.00;;;10.12;100.00
65190;BME280;51777;53.570;9.984;2024-02-26T11:41:45;100587.25;;;10.18;100.00
65190;BME280;51777;53.570;9.984;2024-02-26T11:44:11;100592.00;;;9.95;100.00
65190;BME280;51777;53.570;9.984;2024-02-26T11:46:41;100598.06;;;9.77;100.00
65190;BME280;51777;53.570;9.984;2024-02-26T11:51:56;100596.59;;;9.00;100.00
65190;BME280;51777;53.570;9.984;2024-02-26T11:54:45;100600.75;;;9.20;100.00
65190;BME280;51777;53.570;9.984;2024-02-26T11:57:29;100599.38;;;9.16;100.00
65190;BME280;51777;53.570;9.984;2024-02-26T12:00:10;100597.81;;;9.05;100.00
65190;BME280;51777;53.570;9.984;2024-02-26T12:02:53;100593.09;;;8.81;100.00
65190;BME280;51777;53.570;9.984;2024-02-26T12:05:31;100601.88;;;9.08;100.00
65190;BME280;51777;53.570;9.984;2024-02-26T12:08:07;100602.22;;;9.32;100.00
65190;BME280;51777;53.570;9.984;2024-02-26T12:10:35;100600.81;;;9.38;100.00
65190;BME280;51777;53.570;9.984;2024-02-26T12:15:39;100618.38;;;9.25;100.00
65190;BME280;51777;53.570;9.984;2024-02-26T12:18:06;100614.88;;;9.16;100.00
65190;BME280;51777;53.570;9.984;2024-02-26T12:20:35;100608.59;;;9.28;100.00
65190;BME280;51777;53.570;9.984;2024-02-26T12:23:03;100619.72;;;9.29;100.00
65190;BME280;51777;53.570;9.984;2024-02-26T12:25:32;100618.06;;;9.37;100.00
65190;BME280;51777;53.570;9.984;2024-02-26T12:27:59;100619.16;;;9.45;100.00
65190;BME280;51777;53.570;9.984;2024-02-26T12:30:26;100623.72;;;9.51;100.00
65190;BME280;51777;53.570;9.984;2024-02-26T12:32:55;100620.53;;;9.29;100.00
65190;BME280;51777;53.570;9.984;2024-02-26T12:35:26;100628.28;;;9.29;100.00
65190;BME280;51777;53.570;9.984;2024-02-26T12:37:53;100635.50;;;9.26;100.00
65190;BME280;51777;53.570;9.984;2024-02-26T12:40:20;100631.88;;;9.56;100.00
65190;BME280;51777;53.570;9.984;2024-02-26T12:42:46;100645.78;;;9.35;100.00
65190;BME280;51777;53.570;9.984;2024-02-26T12:45:13;100643.69;;;9.58;100.00
65190;BME280;51777;53.570;9.984;2024-02-26T12:47:41;100641.94;;;9.49;100.00
65190;BME280;51777;53.570;9.984;2024-02-26T12:50:09;100646.03;;;9.42;100.00
65190;BME280;51777;53.570;9.984;2024-02-26T12:52:47;100651.84;;;9.54;100.00
65190;BME280;51777;53.570;9.984;2024-02-26T12:55:20;100650.47;;;9.59;100.00
65190;BME280;51777;53.570;9.984;2024-02-26T12:57:48;100657.31;;;9.78;100.00